Mason Valley Wildlife Refuge, Nevada Weather observations

Data are for 10 minute period ending at time listed.
 Day   Time   Solar   Ave.   Ave.  Ave.  Vector  Max.   Baro.   Total    
  of    of     Rad.   Air    Rel.  Wind   Wind   Wind  Press.  Precip.   
Year   Day            Temp.  Hum.  Speed  Dir.   Gust                    
2014   (PST)  Kw/m2    F      %     mph   deg.    mph    mb.     in.     
-------------------------------------------------------------------------
 297   16:50   0.05   73.1    18    3.1   331     4.5   864.0    0.00 
 297   17:00   0.01   71.9    18    3.5   309     5.4   863.9    0.00 
 297   17:10   0.01   70.2    19    4.9   281     7.5   864.1    0.00 
 297   17:20   0.00   69.2    18    5.4   270     9.2   864.2    0.00 
 297   17:30   0.00   67.2    21    3.2   263     6.1   864.4    0.00 
 297   17:40   0.00   64.9    24    2.5    28     5.3   864.6    0.00 
 297   17:50   0.00   65.4    23    2.9    32     4.9   864.7    0.00 
 297   18:00   0.00   65.2    22    3.1    80     5.1   865.0    0.00 
 297   18:10   0.00   63.3    26    3.7    10     4.4   865.1    0.00 
 297   18:20   0.00   65.7    24    1.3     7     2.9   865.1    0.00 
 297   18:30   0.00   60.2    29    0.8     0     2.9   865.2    0.00 
 297   18:40   0.00   64.0    24    3.6   328     5.3   865.1    0.00 
 297   18:50   0.00   68.8    16    3.8   305     7.2   865.2    0.00 
 297   19:00   0.00   62.2    24    3.7   154     7.0   865.4    0.00 
 297   19:10   0.00   61.3    24    4.7   230     6.7   865.5    0.00 
 297   19:20   0.00   59.9    25    4.8   252     6.3   865.5    0.00 
 297   19:30   0.00   64.0    20    5.6   238     7.9   865.6    0.00 
 297   19:40   0.00   61.4    22    2.3   176     5.3   865.7    0.00 
 297   19:50   0.00   58.4    24    4.4    79     6.9   865.8    0.00 
 297   20:00   0.00   58.9    24    2.5   105     6.4   865.8    0.00 
 297   20:10   0.00   57.9    25    3.0   117     5.8   865.8    0.00 
 297   20:20   0.00   57.8    25    1.6    84     3.7   866.0    0.00 
 297   20:30   0.00   56.0    27    3.1    37     4.2   866.1    0.00 
 297   20:40   0.00   53.3    31    2.5    33     3.7   866.2    0.00 
 297   20:50   0.00   51.6    34    1.7    54     2.5   866.3    0.00 
 297   21:00   0.00   49.5    35    0.7   112     2.3   866.3    0.00 
 297   21:10   0.00   48.3    36    0.5    41     1.3   866.2    0.00 
 297   21:20   0.00   48.8    33    1.1    73     2.5   866.2    0.00 
 297   21:30   0.00   49.1    31    2.4   104     3.4   866.2    0.00 
 297   21:40   0.00   47.4    33    1.6   110     3.4   866.2    0.00 
 297   21:50   0.00   45.2    37    3.1   151     4.2   866.2    0.00 
 297   22:00   0.00   49.6    30    3.8   211     5.4   866.2    0.00 
 297   22:10   0.00   54.6    25    5.5   200     6.3   866.2    0.00 
 297   22:20   0.00   56.4    23    5.4   209     6.4   866.1    0.00 
 297   22:30   0.00   53.4    27    4.5   204     5.7   866.2    0.00 
 297   22:40   0.00   50.0    33    3.6   272     6.7   866.3    0.00 
 297   22:50   0.00   46.0    40    1.7   354     4.8   866.3    0.00 
 297   23:00   0.00   43.2    47    3.5   352     4.7   866.2    0.00 
 297   23:10   0.00   46.1    41    1.5    37     2.8   866.1    0.00 
 297   23:20   0.00   44.1    39    1.6    69     3.9   866.0    0.00 
 297   23:30   0.00   43.1    39    2.2   120     5.1   866.0    0.00 
 297   23:40   0.00   42.0    40    1.4   117     3.2   866.1    0.00 
 297   23:50   0.00   42.2    40    1.2   119     2.9   866.0    0.00 
 298    0:00   0.00   42.0    41    1.1   151     2.1   865.8    0.00 
 298    0:10   0.00   42.5    39    2.5   168     3.7   865.7    0.00 
 298    0:20   0.00   44.5    35    3.3   209     5.1   865.6    0.00 
 298    0:30   0.00   46.2    33    4.6   204     6.6   865.4    0.00 
 298    0:40   0.00   49.3    29    5.7   197     6.9   865.4    0.00 
 298    0:50   0.00   51.8    25    7.0   192     8.3   865.4    0.00 
 298    1:00   0.00   54.6    22    7.2   184    10.1   865.3    0.00 
 298    1:10   0.00   56.0    21    7.3   190     9.4   865.3    0.00 
 298    1:20   0.00   55.6    22    6.3   191     8.1   865.3    0.00 
 298    1:30   0.00   53.2    25    4.5   265     6.9   865.3    0.00 
 298    1:40   0.00   46.1    35    3.0   358     4.8   865.3    0.00 
 298    1:50   0.00   44.6    35    2.1    24     4.8   865.1    0.00 
 298    2:00   0.00   45.3    32    2.5    10     3.6   865.0    0.00 
 298    2:10   0.00   47.1    31    2.3     0     5.6   864.9    0.00 
 298    2:20   0.00   47.5    29    2.0    44     3.5   864.8    0.00 
 298    2:30   0.00   48.1    29    2.6    88     5.3   864.6    0.00 
 298    2:40   0.00   44.6    35    2.0   316     5.6   864.6    0.00 
 298    2:50   0.00   43.8    39    0.9    86     2.4   864.5    0.00 
 298    3:00   0.00   43.9    39    2.2   287     5.9   864.4    0.00 
 298    3:10   0.00   42.0    45    1.7   163     3.6   864.2    0.00 
 298    3:20   0.00   40.9    49    2.3   176     4.0   864.2    0.00 
 298    3:30   0.00   40.1    49    1.4   176     2.6   864.1    0.00 
 298    3:40   0.00   39.8    47    3.0   105     5.0   863.9    0.00 
 298    3:50   0.00   39.4    47    1.4    66     4.8   863.8    0.00 
 298    4:00   0.00   41.2    42    1.4    29     2.8   863.9    0.00 
 298    4:10   0.00   41.8    45    3.2    29     5.0   864.0    0.00 
 298    4:20   0.00   42.4    44    1.0   345     3.9   864.0    0.00 
 298    4:30   0.00   42.6    48    1.4    70     2.3   863.9    0.00 
 298    4:40   0.00   43.8    42    1.6   286     6.0   863.9    0.00 
 298    4:50   0.00   42.2    43    2.8   347     5.0   863.9    0.00 
 298    5:00   0.00   45.2    37    1.7   273     5.2   863.9    0.00 
 298    5:10   0.00   45.0    39    0.8   271     2.0   864.0    0.00 
 298    5:20   0.00   44.2    42    1.2   340     2.9   864.1    0.00 
 298    5:30   0.00   42.1    45    1.9     0     3.1   864.1    0.00 
 298    5:40   0.00   44.5    40    1.1   310     2.6   864.1    0.00 
 298    5:50   0.00   44.3    40    0.3    86     2.1   864.1    0.00 
 298    6:00   0.00   46.1    35    2.5   113     3.1   864.0    0.00 
 298    6:10   0.00   42.9    42    1.9   131     3.7   864.1    0.00 
 298    6:20   0.01   43.0    40    3.6   150     5.4   864.1    0.00 
 298    6:30   0.01   44.3    39    4.1   150     6.4   864.1    0.00 
 298    6:40   0.02   48.6    33    5.3   150     6.9   864.1    0.00 
 298    6:50   0.02   48.8    34    4.9   180     9.0   864.1    0.00 
 298    7:00   0.02   52.8    34    5.8   179     9.3   864.2    0.00 
 298    7:10   0.03   53.8    33    5.3   170     8.8   864.4    0.00 
 298    7:20   0.02   51.0    34    4.5   142     5.8   864.4    0.00 
 298    7:30   0.03   50.8    36    2.6   120     4.3   864.5    0.00 
 298    7:40   0.10   45.9    48    2.3    14     4.2   864.7    0.00 
 298    7:50   0.23   50.5    45    2.8   353     3.9   864.9    0.00 
 298    8:00   0.25   58.8    36    1.3   306     2.9   865.0    0.00 
 298    8:10   0.28   63.6    28    2.8   240     5.3   865.1    0.00 
 298    8:20   0.31   66.0    25    2.9   251     8.1   865.2    0.00 
 298    8:30   0.34   64.7    25    6.1   324    11.3   865.2    0.00 
 298    8:40   0.36   64.5    25    7.7   343    13.2   865.2    0.00 
 298    8:50   0.39   64.6    26    8.1   332    13.1   865.2    0.00 
 298    9:00   0.42   66.8    23    7.2   275    17.4   865.1    0.00 
 298    9:10   0.45   66.9    20   14.5   234    24.2   865.1    0.00 
 298    9:20   0.48   67.4    20   12.9   236    21.4   865.0    0.00 
 298    9:30   0.51   67.6    19   14.0   234    22.2   864.9    0.00 
 298    9:40   0.53   67.6    19   15.1   230    24.0   864.8    0.00 
 298    9:50   0.55   67.9    19   15.1   235    24.9   864.7    0.00 
 298   10:00   0.57   67.9    18   17.5   230    26.9   864.7    0.00 
 298   10:10   0.59   68.2    17   16.8   227    25.6   864.6    0.00 
 298   10:20   0.60   68.5    16   18.6   228    27.5   864.7    0.00 
 298   10:30   0.62   68.4    14   19.7   228    33.4   864.7    0.00 
 298   10:40   0.63   69.1    14   15.6   232    26.6   864.7    0.00 
 298   10:50   0.65   69.1    14   18.2   231    28.7   864.6    0.00 
 298   11:00   0.65   69.8    14   15.1   225    21.6   864.6    0.00 
 298   11:10   0.66   70.0    14   15.8   220    25.9   864.6    0.00 
 298   11:20   0.67   69.9    14   14.8   231    25.2   864.6    0.00 
 298   11:30   0.68   70.2    14   12.9   228    21.2   864.5    0.00 
 298   11:40   0.68   70.3    14   13.5   230    21.6   864.3    0.00 
 298   11:50   0.68   70.4    14   14.9   226    23.8   864.3    0.00 
 298   12:00   0.68   70.9    14   13.8   220    24.2   864.1    0.00 
 298   12:10   0.68   71.0    14   17.2   216    27.5   864.0    0.00 
 298   12:20   0.68   70.9    14   16.1   219    26.5   863.8    0.00 
 298   12:30   0.67   71.2    14   17.8   213    25.9   863.7    0.00 
 298   12:40   0.67   71.3    14   16.1   220    24.5   863.6    0.00 
 298   12:50   0.66   71.4    14   18.0   218    26.9   863.6    0.00 
 298   13:00   0.65   71.3    14   15.1   227    26.0   863.8    0.00 
 298   13:10   0.64   70.9    14   16.9   232    27.9   863.8    0.00 
 298   13:20   0.62   70.8    15   17.8   225    28.6   863.7    0.00 
 298   13:30   0.60   70.4    15   19.8   226    31.4   863.8    0.00 
 298   13:40   0.59   70.5    15   21.0   223    31.2   863.8    0.00 
 298   13:50   0.58   70.4    15   21.4   217    31.9   863.9    0.00 
 298   14:00   0.54   68.5    23   19.7   259    33.0   864.4    0.00 
 298   14:10   0.52   64.7    30   17.7   273    27.8   864.8    0.00 
 298   14:20   0.50   64.1    32   16.7   274    27.8   864.8    0.00 
 298   14:30   0.47   62.6    34   18.7   276    29.5   865.0    0.00 
 298   14:40   0.45   61.8    36   18.2   266    29.1   865.3    0.00 
 298   14:50   0.43   60.0    40   19.9   260    30.6   865.7    0.00 
 298   15:00   0.42   58.6    44   19.8   258    36.2   866.2    0.00 
 298   15:10   0.43   58.3    44   16.9   260    28.8   866.4    0.00 
 298   15:20   0.35   57.1    46   17.9   257    26.7   866.5    0.00 
 298   15:30   0.31   56.9    47   16.4   258    26.5   866.5    0.00 
 298   15:40   0.27   56.6    47   18.1   250    32.7   866.5    0.00 
 298   15:50   0.24   56.6    46   15.6   239    24.5   866.5    0.00 
 298   16:00   0.21   56.2    47   12.5   248    20.9   866.6    0.00 
 298   16:10   0.18   56.1    46   11.2   242    23.9   866.7    0.00 
 298   16:20   0.15   55.6    45   12.9   250    20.5   866.6    0.00 
 298   16:30   0.12   55.4    43   11.8   240    21.1   866.6    0.00 
 298   16:40   0.09   55.1    43   10.8   244    19.8   866.6    0.00 

Return to Mason Valley Wildlife Refuge graphs page.


Western Regional Climate Center,wrcc@dri.edu